Time;durP1;ratioP1;P1;durP2;ratioP2;P2;SDS_P1;SDS_P2;PMS_P1;PMS_P2;Temp;Humidity;BMP_temperature;BMP_pressure;BME280_temperature;BME280_humidity;BME280_pressure;Samples;Min_cycle;Max_cycle;Signal;HPM_P1;HPM_P2
2022/07/24 00:02:22;;;;;;;25.30;19.10;;;20.90;99.90;;;;;;5043157;28;20116;-96
2022/07/24 00:04:56;;;;;;;74.05;58.17;;;21.00;99.90;;;;;;5046552;28;20354;-93
2022/07/24 00:07:25;;;;;;;24.63;21.00;;;21.00;99.90;;;;;;5044195;28;20116;-96
2022/07/24 00:09:51;;;;;;;24.20;20.23;;;21.00;99.90;;;;;;5033679;28;20124;-95
2022/07/24 00:12:17;;;;;;;23.63;21.05;;;21.00;99.90;;;;;;5034054;28;20480;-95
2022/07/24 00:14:43;;;;;;;31.80;24.23;;;20.90;99.90;;;;;;5040541;28;20037;-95
2022/07/24 00:17:08;;;;;;;32.42;26.83;;;20.90;99.90;;;;;;5044854;28;20036;-95
2022/07/24 00:19:34;;;;;;;31.70;26.40;;;20.90;99.90;;;;;;5034979;28;20014;-95
2022/07/24 00:22:02;;;;;;;27.85;24.67;;;20.90;99.90;;;;;;5033368;28;20024;-95
2022/07/24 00:24:29;;;;;;;31.55;23.52;;;20.90;99.90;;;;;;5038864;28;20535;-93
2022/07/24 00:26:54;;;;;;;28.90;24.00;;;20.90;99.90;;;;;;5038095;28;20055;-95
2022/07/24 00:29:20;;;;;;;28.65;24.88;;;20.90;99.90;;;;;;5042807;28;20025;-96
2022/07/24 00:31:49;;;;;;;29.90;25.45;;;20.80;99.90;;;;;;5043881;28;20085;-96
2022/07/24 00:34:15;;;;;;;28.60;23.92;;;20.90;99.90;;;;;;5050964;28;20031;-96
2022/07/24 00:36:43;;;;;;;;;;;20.80;99.90;;;;;;5056445;28;20048;-95
2022/07/24 00:39:09;;;;;;;26.63;23.73;;;20.80;99.90;;;;;;5051149;28;19909;-95
2022/07/24 00:41:35;;;;;;;29.98;24.70;;;20.80;99.90;;;;;;5041090;28;20037;-96
2022/07/24 00:44:15;;;;;;;31.48;24.60;;;20.90;99.90;;;;;;5043669;28;20030;-95
2022/07/24 00:46:44;;;;;;;27.00;23.92;;;20.90;99.90;;;;;;5043279;28;20029;-94
2022/07/24 00:49:12;;;;;;;29.58;24.30;;;20.90;99.90;;;;;;5042843;28;20037;-95
2022/07/24 00:51:41;;;;;;;31.70;24.85;;;20.70;99.90;;;;;;5043300;28;20097;-94
2022/07/24 00:54:08;;;;;;;31.38;27.48;;;20.80;99.90;;;;;;5043131;28;20061;-94
2022/07/24 00:56:35;;;;;;;31.67;26.55;;;20.80;99.90;;;;;;5043579;28;20481;-94
2022/07/24 00:59:03;;;;;;;32.20;27.38;;;20.80;99.90;;;;;;5044293;28;20080;-94
2022/07/24 01:01:29;;;;;;;34.88;28.73;;;20.70;99.90;;;;;;5043957;28;20033;-96
2022/07/24 01:03:57;;;;;;;30.70;25.55;;;20.60;99.90;;;;;;5043675;28;20056;-96
2022/07/24 01:06:24;;;;;;;33.30;27.08;;;20.60;99.90;;;;;;5043737;28;20037;-96
2022/07/24 01:08:51;;;;;;;36.17;29.80;;;20.60;99.90;;;;;;5043970;28;20029;-95
2022/07/24 01:11:18;;;;;;;;;;;20.60;99.90;;;;;;5043698;28;20034;-95
2022/07/24 01:13:44;;;;;;;40.92;34.25;;;20.60;99.90;;;;;;5044071;28;19916;-95
2022/07/24 01:16:10;;;;;;;41.78;33.47;;;20.40;99.90;;;;;;5042376;28;20041;-95
2022/07/24 01:18:37;;;;;;;40.15;33.05;;;20.40;99.90;;;;;;5043360;28;20093;-96
2022/07/24 01:21:04;;;;;;;37.63;31.70;;;20.50;99.90;;;;;;5047135;28;20116;-95
2022/07/24 01:23:30;;;;;;;34.38;29.52;;;20.50;99.90;;;;;;5047255;28;20489;-95
2022/07/24 01:25:58;;;;;;;33.30;27.88;;;20.50;99.90;;;;;;5047506;28;20650;-95
2022/07/24 01:28:23;;;;;;;31.25;26.50;;;20.50;99.90;;;;;;5047815;28;20040;-95
2022/07/24 01:30:50;;;;;;;36.28;28.08;;;20.40;99.90;;;;;;5047331;28;20136;-93
2022/07/24 01:33:16;;;;;;;34.83;29.05;;;20.40;99.90;;;;;;5047786;28;20109;-95
2022/07/24 01:35:42;;;;;;;34.45;27.13;;;20.40;99.90;;;;;;5047182;28;20603;-95
2022/07/24 01:38:09;;;;;;;32.00;26.38;;;20.40;99.90;;;;;;5047256;28;20053;-95
2022/07/24 01:40:35;;;;;;;30.63;26.27;;;20.30;99.90;;;;;;5047595;28;20097;-94
2022/07/24 01:43:01;;;;;;;34.78;27.25;;;20.30;99.90;;;;;;5047055;28;20051;-94
2022/07/24 01:45:28;;;;;;;31.23;25.53;;;20.30;99.90;;;;;;5046473;28;20025;-96
2022/07/24 01:47:53;;;;;;;30.38;25.40;;;20.20;99.90;;;;;;5047148;28;20029;-95
2022/07/24 01:50:19;;;;;;;31.52;27.42;;;20.20;99.90;;;;;;5046507;28;20140;-95
2022/07/24 01:52:46;;;;;;;31.27;26.60;;;20.20;99.90;;;;;;5050264;28;20021;-96
2022/07/24 01:55:12;;;;;;;31.02;25.80;;;20.10;99.90;;;;;;5050313;28;20029;-95
2022/07/24 01:57:38;;;;;;;30.25;22.73;;;20.10;99.90;;;;;;5052929;28;20059;-93
2022/07/24 02:00:08;;;;;;;31.17;23.85;;;20.10;99.90;;;;;;5051802;22;20061;-57
2022/07/24 02:02:34;;;;;;;27.45;23.88;;;20.10;99.90;;;;;;5032399;28;20034;-57
2022/07/24 02:04:59;;;;;;;28.83;22.70;;;20.10;99.90;;;;;;5032907;28;20499;-56
2022/07/24 02:07:25;;;;;;;26.95;22.10;;;20.10;99.90;;;;;;5032622;28;20053;-56
2022/07/24 02:09:51;;;;;;;26.77;21.30;;;20.10;99.90;;;;;;5032826;28;20028;-55
2022/07/24 02:12:16;;;;;;;25.42;21.33;;;20.00;99.90;;;;;;5032928;28;20058;-56
2022/07/24 02:14:42;;;;;;;23.90;21.33;;;19.90;99.90;;;;;;5032663;28;20132;-56
2022/07/24 02:17:08;;;;;;;31.70;22.73;;;19.90;99.90;;;;;;5032748;28;20031;-56
2022/07/24 02:19:33;;;;;;;26.33;23.23;;;20.00;99.90;;;;;;5032834;28;20053;-56
2022/07/24 02:21:59;;;;;;;29.00;22.85;;;19.90;99.90;;;;;;5032414;28;20029;-56
2022/07/24 02:24:25;;;;;;;24.15;21.52;;;19.80;99.90;;;;;;5032810;28;20072;-56
2022/07/24 02:26:51;;;;;;;25.63;20.60;;;19.80;99.90;;;;;;5032602;28;20033;-56
2022/07/24 02:29:16;;;;;;;23.70;20.45;;;19.70;99.90;;;;;;5032525;28;20029;-56
2022/07/24 02:31:42;;;;;;;29.88;21.63;;;19.70;99.90;;;;;;5031298;28;20071;-55
2022/07/24 02:34:08;;;;;;;33.92;21.67;;;19.60;99.90;;;;;;5032372;28;20021;-55
2022/07/24 02:36:33;;;;;;;25.52;22.60;;;19.50;99.90;;;;;;5032367;28;20046;-56
2022/07/24 02:38:59;;;;;;;34.47;20.33;;;19.50;99.90;;;;;;5032505;28;20427;-56
2022/07/24 02:41:25;;;;;;;25.92;19.90;;;19.40;99.90;;;;;;5032457;28;20036;-56
2022/07/24 02:43:50;;;;;;;28.35;19.27;;;19.40;99.90;;;;;;5032143;28;20029;-56
2022/07/24 02:46:16;;;;;;;23.75;19.48;;;19.40;99.90;;;;;;5032176;28;20128;-56
2022/07/24 02:48:42;;;;;;;26.20;19.77;;;19.30;99.90;;;;;;5032276;28;20056;-56
2022/07/24 02:51:08;;;;;;;24.55;19.17;;;19.30;99.90;;;;;;5032045;28;20492;-56
2022/07/24 02:53:33;;;;;;;25.90;18.95;;;19.30;99.90;;;;;;5031747;28;20037;-56
2022/07/24 02:55:59;;;;;;;20.70;16.75;;;19.20;99.90;;;;;;5012450;28;20049;-56
2022/07/24 02:58:25;;;;;;;22.80;17.25;;;19.20;99.90;;;;;;5012183;28;20022;-56
2022/07/24 03:00:50;;;;;;;22.13;17.15;;;19.10;99.90;;;;;;5012178;28;20037;-56
2022/07/24 03:03:16;;;;;;;20.55;17.90;;;19.00;99.90;;;;;;5012063;28;20120;-56
2022/07/24 03:05:42;;;;;;;22.23;17.15;;;18.90;99.90;;;;;;5011945;28;20026;-55
2022/07/24 03:08:08;;;;;;;21.60;16.75;;;18.90;99.90;;;;;;5012071;28;20018;-56
2022/07/24 03:10:33;;;;;;;19.35;15.82;;;18.80;99.90;;;;;;5011784;28;20062;-56
2022/07/24 03:12:59;;;;;;;20.92;16.13;;;18.80;99.90;;;;;;5011817;28;20033;-55
2022/07/24 03:15:25;;;;;;;24.70;16.65;;;18.80;99.90;;;;;;5011781;28;20041;-55
2022/07/24 03:17:55;;;;;;;20.42;15.10;;;18.80;99.90;;;;;;5011788;28;20092;-55
2022/07/24 03:20:23;;;;;;;21.05;16.65;;;18.80;99.90;;;;;;5011696;28;20026;-55
2022/07/24 03:22:49;;;;;;;20.02;15.80;;;18.70;99.90;;;;;;5012008;28;20247;-55
2022/07/24 03:25:15;;;;;;;23.93;16.80;;;18.70;99.90;;;;;;5011529;28;20030;-55
2022/07/24 03:27:42;;;;;;;17.30;14.60;;;18.60;99.90;;;;;;5011539;28;20327;-55
2022/07/24 03:30:09;;;;;;;19.27;15.70;;;18.60;99.90;;;;;;5011789;28;20135;-55
2022/07/24 03:32:34;;;;;;;29.95;15.77;;;18.60;99.90;;;;;;5011350;28;20033;-56
2022/07/24 03:35:00;;;;;;;18.50;15.20;;;18.60;99.90;;;;;;5011593;28;20564;-56
2022/07/24 03:37:26;;;;;;;19.45;14.43;;;18.60;99.90;;;;;;5011378;28;20044;-55
2022/07/24 03:39:52;;;;;;;24.08;15.95;;;18.60;99.90;;;;;;5011561;28;20036;-55
2022/07/24 03:42:17;;;;;;;19.23;14.82;;;18.60;99.90;;;;;;5010778;28;20080;-55
2022/07/24 03:44:43;;;;;;;21.27;15.05;;;18.60;99.90;;;;;;5011371;28;20037;-56
2022/07/24 03:47:09;;;;;;;19.05;14.23;;;18.60;99.90;;;;;;5011184;28;20389;-55
2022/07/24 03:49:34;;;;;;;23.58;15.20;;;18.60;99.90;;;;;;5010071;28;20113;-55
2022/07/24 03:52:00;;;;;;;20.63;14.95;;;18.60;99.90;;;;;;5011372;28;20025;-55
2022/07/24 03:54:26;;;;;;;17.88;15.18;;;18.50;99.90;;;;;;5010961;28;20460;-55
2022/07/24 03:56:52;;;;;;;20.88;14.68;;;18.50;99.90;;;;;;5011087;28;20034;-55
2022/07/24 03:59:18;;;;;;;19.55;16.48;;;18.40;99.90;;;;;;5010909;28;20111;-55
2022/07/24 04:01:44;;;;;;;20.90;15.98;;;18.40;99.90;;;;;;5010957;28;20053;-56
2022/07/24 04:04:10;;;;;;;19.20;14.77;;;18.30;99.90;;;;;;5011075;28;20030;-55
2022/07/24 04:06:35;;;;;;;19.88;15.82;;;18.30;99.90;;;;;;5010943;28;20022;-55
2022/07/24 04:09:03;;;;;;;20.95;15.30;;;18.40;99.90;;;;;;5010933;28;20053;-56
2022/07/24 04:11:29;;;;;;;22.77;18.17;;;18.30;99.90;;;;;;5010741;28;20104;-55
2022/07/24 04:13:55;;;;;;;24.27;18.80;;;18.30;99.90;;;;;;5025834;28;20037;-55
2022/07/24 04:16:21;;;;;;;24.50;19.92;;;18.30;99.90;;;;;;5010681;28;20124;-55
2022/07/24 04:18:47;;;;;;;22.30;18.92;;;18.30;99.90;;;;;;5010981;28;20058;-56
2022/07/24 04:21:13;;;;;;;26.83;19.83;;;18.30;99.90;;;;;;5010605;28;20029;-56
2022/07/24 04:23:39;;;;;;;23.90;19.92;;;18.40;99.90;;;;;;5010596;28;20034;-55
2022/07/24 04:26:05;;;;;;;23.15;17.63;;;18.40;99.90;;;;;;5010591;28;20090;-56
2022/07/24 04:28:30;;;;;;;24.92;20.10;;;18.40;99.90;;;;;;5010639;28;20022;-56
2022/07/24 04:30:56;;;;;;;25.35;18.92;;;18.50;99.90;;;;;;5010436;28;20397;-56
2022/07/24 04:33:22;;;;;;;22.17;17.42;;;18.50;99.90;;;;;;5010489;28;20115;-56
2022/07/24 04:35:48;;;;;;;24.00;19.13;;;18.50;99.90;;;;;;5010451;28;20399;-56
2022/07/24 04:38:14;;;;;;;20.00;16.40;;;18.50;99.90;;;;;;5010742;28;20037;-55
2022/07/24 04:40:40;;;;;;;29.95;17.25;;;18.50;99.90;;;;;;5010699;28;20523;-56
2022/07/24 04:43:06;;;;;;;22.95;16.52;;;18.60;99.90;;;;;;5010323;28;20030;-56
2022/07/24 04:45:32;;;;;;;26.20;18.77;;;18.60;99.90;;;;;;5010310;28;20504;-56
2022/07/24 04:47:58;;;;;;;20.65;17.15;;;18.60;99.90;;;;;;5010542;28;20033;-55
2022/07/24 04:50:24;;;;;;;24.83;18.92;;;18.70;99.90;;;;;;5010358;28;20026;-56
2022/07/24 04:52:49;;;;;;;23.13;18.27;;;18.70;99.90;;;;;;5010237;28;20060;-56
2022/07/24 04:55:15;;;;;;;26.30;19.08;;;18.70;99.90;;;;;;5009729;28;20049;-56
2022/07/24 04:57:41;;;;;;;25.33;18.02;;;18.70;99.90;;;;;;5010051;28;20030;-56
2022/07/24 05:00:10;;;;;;;22.45;18.05;;;18.70;99.90;;;;;;5009862;28;20116;-56
2022/07/24 05:02:35;;;;;;;27.20;18.10;;;18.80;99.90;;;;;;5010152;28;20030;-56
2022/07/24 05:05:01;;;;;;;21.55;16.58;;;18.80;99.90;;;;;;5010307;28;20073;-56
2022/07/24 05:07:27;;;;;;;27.58;17.90;;;18.90;99.90;;;;;;5010176;28;20445;-56
2022/07/24 05:09:52;;;;;;;20.88;15.73;;;18.90;99.90;;;;;;5010218;28;20672;-56
2022/07/24 05:12:18;;;;;;;26.10;17.17;;;19.00;99.90;;;;;;5008621;28;20030;-56
2022/07/24 05:14:44;;;;;;;20.67;15.02;;;19.00;99.90;;;;;;5009901;28;20029;-56
2022/07/24 05:17:10;;;;;;;17.48;13.25;;;19.00;99.90;;;;;;5010075;28;20034;-56
2022/07/24 05:19:36;;;;;;;16.98;12.98;;;19.10;99.90;;;;;;5010186;28;20026;-56
2022/07/24 05:22:02;;;;;;;18.48;13.63;;;19.10;99.90;;;;;;5010194;28;20026;-56
2022/07/24 05:24:27;;;;;;;20.05;13.90;;;19.10;99.90;;;;;;5009980;28;20501;-56
2022/07/24 05:26:53;;;;;;;21.73;13.77;;;19.10;99.90;;;;;;5009807;28;20033;-55
2022/07/24 05:29:19;;;;;;;17.65;13.10;;;19.10;99.90;;;;;;5009926;28;20026;-56
2022/07/24 05:31:46;;;;;;;17.13;12.75;;;19.20;99.90;;;;;;5010147;28;20056;-56
2022/07/24 05:34:12;;;;;;;15.68;11.13;;;19.20;99.90;;;;;;5029687;28;20104;-56
2022/07/24 05:36:37;;;;;;;16.48;11.48;;;19.30;99.90;;;;;;5029568;28;20204;-56
2022/07/24 05:39:04;;;;;;;15.10;11.23;;;19.30;99.90;;;;;;5029645;28;20026;-56
2022/07/24 05:41:30;;;;;;;14.37;10.97;;;19.40;99.90;;;;;;5028349;28;20383;-56
2022/07/24 05:43:55;;;;;;;15.13;10.52;;;19.40;99.90;;;;;;5029211;28;20112;-56
2022/07/24 05:46:21;;;;;;;13.48;10.77;;;19.40;99.90;;;;;;5029551;28;20076;-56
2022/07/24 05:48:47;;;;;;;14.73;11.10;;;19.40;99.90;;;;;;5029796;28;20030;-56
2022/07/24 05:51:12;;;;;;;19.08;11.55;;;19.50;99.90;;;;;;5029490;28;20254;-56
2022/07/24 05:53:38;;;;;;;15.60;10.75;;;19.50;99.90;;;;;;5029478;28;20107;-56
2022/07/24 05:56:04;;;;;;;17.52;9.77;;;19.60;99.90;;;;;;5029312;28;20497;-56
2022/07/24 05:58:30;;;;;;;13.77;10.82;;;19.50;99.90;;;;;;5029293;28;20038;-56
2022/07/24 06:00:55;;;;;;;14.05;8.68;;;19.60;99.90;;;;;;5029101;28;20037;-56
2022/07/24 06:03:21;;;;;;;18.20;11.30;;;19.70;99.90;;;;;;5029224;28;20096;-56
2022/07/24 06:05:47;;;;;;;13.02;9.05;;;19.60;99.90;;;;;;5031551;28;20477;-56
2022/07/24 06:08:13;;;;;;;14.25;8.60;;;19.70;99.90;;;;;;5032985;28;20017;-56
2022/07/24 06:10:38;;;;;;;13.27;9.30;;;19.60;99.90;;;;;;5032862;28;20119;-55
2022/07/24 06:13:04;;;;;;;12.57;8.48;;;19.60;99.90;;;;;;5032749;28;20029;-54
2022/07/24 06:15:30;;;;;;;12.13;7.50;;;19.70;99.90;;;;;;5032632;28;20420;-55
2022/07/24 06:17:56;;;;;;;13.30;7.38;;;19.80;99.90;;;;;;5032719;28;20044;-56
2022/07/24 06:20:22;;;;;;;11.13;8.70;;;19.80;99.90;;;;;;5032575;28;20042;-55
2022/07/24 06:22:48;;;;;;;15.77;7.78;;;19.90;99.90;;;;;;5032636;28;20060;-55
2022/07/24 06:25:14;;;;;;;10.30;7.30;;;19.90;99.90;;;;;;5032608;28;20033;-55
2022/07/24 06:27:47;;;;;;;11.35;6.95;;;19.80;99.90;;;;;;5032307;28;20033;-56
2022/07/24 06:30:17;;;;;;;16.30;7.15;;;19.80;99.90;;;;;;5032570;28;20029;-56
2022/07/24 06:32:43;;;;;;;10.25;6.82;;;19.90;99.90;;;;;;5032419;28;20029;-55
2022/07/24 06:35:09;;;;;;;12.60;7.18;;;20.00;99.90;;;;;;5032440;28;20073;-55
2022/07/24 06:37:34;;;;;;;9.65;6.85;;;20.00;99.90;;;;;;5032299;28;20061;-55
2022/07/24 06:40:00;;;;;;;10.60;6.65;;;20.00;99.90;;;;;;5032291;28;20037;-55
2022/07/24 06:42:26;;;;;;;9.15;6.60;;;20.10;99.90;;;;;;5032203;28;20033;-55
2022/07/24 06:44:52;;;;;;;12.60;6.13;;;20.20;99.90;;;;;;5032283;28;20021;-55
2022/07/24 06:47:17;;;;;;;9.93;6.65;;;20.20;99.90;;;;;;5032044;28;20116;-55
2022/07/24 06:49:43;;;;;;;10.23;6.68;;;20.30;99.90;;;;;;5032041;28;20047;-55
2022/07/24 06:52:09;;;;;;;10.50;5.70;;;20.30;99.90;;;;;;5032052;28;20055;-55
2022/07/24 06:54:34;;;;;;;9.73;5.90;;;20.40;99.90;;;;;;5025580;28;20025;-55
2022/07/24 06:57:00;;;;;;;7.03;5.55;;;20.50;99.90;;;;;;5022517;28;20116;-55
2022/07/24 06:59:26;;;;;;;10.95;5.82;;;20.60;99.90;;;;;;5019839;28;20151;-55
2022/07/24 07:01:51;;;;;;;9.75;5.35;;;20.60;99.90;;;;;;5022284;28;20370;-55
2022/07/24 07:04:17;;;;;;;6.63;4.72;;;20.70;99.90;;;;;;5017879;28;20521;-56
2022/07/24 07:06:43;;;;;;;7.68;5.18;;;20.70;99.90;;;;;;5023170;28;20072;-56
2022/07/24 07:09:09;;;;;;;10.50;5.53;;;20.80;99.90;;;;;;5021764;28;20021;-56
2022/07/24 07:11:34;;;;;;;9.45;4.65;;;20.90;99.90;;;;;;5031636;28;20022;-56
2022/07/24 07:14:00;;;;;;;9.95;4.85;;;21.00;99.90;;;;;;5031374;28;20029;-56
2022/07/24 07:16:26;;;;;;;14.55;5.90;;;21.10;99.90;;;;;;5030828;28;20121;-56
2022/07/24 07:18:51;;;;;;;12.65;5.93;;;21.10;99.90;;;;;;5031337;28;20087;-56
2022/07/24 07:21:17;;;;;;;10.25;5.75;;;21.10;99.90;;;;;;5025604;28;20061;-56
2022/07/24 07:23:43;;;;;;;10.55;5.35;;;21.20;99.90;;;;;;5021406;28;20038;-56
2022/07/24 07:26:09;;;;;;;11.25;5.80;;;21.30;99.90;;;;;;5020951;28;20464;-55
2022/07/24 07:28:35;;;;;;;10.30;6.30;;;21.30;99.90;;;;;;5020429;28;20093;-56
2022/07/24 07:31:00;;;;;;;9.68;5.68;;;21.40;99.90;;;;;;5019552;28;20029;-56
2022/07/24 07:33:26;;;;;;;9.90;6.10;;;21.50;99.90;;;;;;5021249;28;20025;-56
2022/07/24 07:35:52;;;;;;;13.63;6.90;;;21.60;99.90;;;;;;5018480;28;20477;-56
2022/07/24 07:38:18;;;;;;;9.27;5.72;;;21.50;99.90;;;;;;5019772;28;20064;-56
2022/07/24 07:40:44;;;;;;;10.65;6.03;;;21.50;99.90;;;;;;5021084;28;20040;-56
2022/07/24 07:43:10;;;;;;;14.60;6.18;;;21.60;99.90;;;;;;5019351;28;20017;-56
2022/07/24 07:45:36;;;;;;;10.60;5.68;;;21.60;99.90;;;;;;5019706;28;20029;-56
2022/07/24 07:48:02;;;;;;;12.48;6.38;;;21.60;99.90;;;;;;5020937;28;20022;-56
2022/07/24 07:50:28;;;;;;;13.20;6.88;;;21.70;99.90;;;;;;5018898;28;20029;-56
2022/07/24 07:52:54;;;;;;;9.95;6.55;;;21.70;99.90;;;;;;5019917;28;20030;-56
2022/07/24 07:55:20;;;;;;;14.82;7.97;;;21.70;99.90;;;;;;5020357;28;20041;-56
2022/07/24 07:57:46;;;;;;;13.18;7.50;;;21.80;99.90;;;;;;5018540;28;20030;-56
2022/07/24 08:00:12;;;;;;;14.00;8.10;;;21.80;99.90;;;;;;5019787;28;20098;-56
2022/07/24 08:02:39;;;;;;;15.70;7.32;;;21.80;99.90;;;;;;5020507;28;20031;-55
2022/07/24 08:05:05;;;;;;;11.80;6.75;;;21.80;99.90;;;;;;5019057;28;20041;-56
2022/07/24 08:07:31;;;;;;;16.05;6.70;;;21.80;99.90;;;;;;5019593;28;20025;-56
2022/07/24 08:09:57;;;;;;;14.70;7.20;;;21.70;99.90;;;;;;5017311;28;20236;-56
2022/07/24 08:12:23;;;;;;;11.82;7.57;;;21.80;99.90;;;;;;5020566;28;20475;-56
2022/07/24 08:14:49;;;;;;;16.65;7.95;;;21.80;99.90;;;;;;5019402;28;20037;-56
2022/07/24 08:17:14;;;;;;;9.77;5.80;;;21.80;99.90;;;;;;5018939;28;20032;-56
2022/07/24 08:19:41;;;;;;;9.95;5.75;;;21.90;99.90;;;;;;5020459;28;20026;-56
2022/07/24 08:22:08;;;;;;;8.25;5.60;;;21.90;99.90;;;;;;5019226;28;20034;-56
2022/07/24 08:24:34;;;;;;;10.95;5.93;;;22.00;99.90;;;;;;5018908;28;20033;-56
2022/07/24 08:27:00;;;;;;;9.23;5.77;;;22.10;99.90;;;;;;5020489;28;20026;-56
2022/07/24 08:29:26;;;;;;;10.63;6.55;;;22.20;99.90;;;;;;5016198;28;20030;-56
2022/07/24 08:31:52;;;;;;;11.70;6.45;;;22.40;99.90;;;;;;5019117;28;20038;-56
2022/07/24 08:34:18;;;;;;;11.45;6.10;;;22.60;99.90;;;;;;5020075;28;21294;-56
2022/07/24 08:36:45;;;;;;;7.18;5.50;;;22.60;99.90;;;;;;5018093;28;20038;-56
2022/07/24 08:39:15;;;;;;;11.30;6.55;;;22.60;99.90;;;;;;5019190;28;20101;-56
2022/07/24 08:41:41;;;;;;;10.27;6.35;;;22.70;99.90;;;;;;5019913;28;20512;-56
2022/07/24 08:44:08;;;;;;;10.52;6.88;;;22.40;99.90;;;;;;5018585;28;20057;-56
2022/07/24 08:46:37;;;;;;;12.88;6.18;;;22.30;99.90;;;;;;5018900;28;20052;-56
2022/07/24 08:49:07;;;;;;;11.85;7.50;;;22.30;99.90;;;;;;5019926;28;20451;-56
2022/07/24 08:51:35;;;;;;;9.38;6.65;;;22.20;99.90;;;;;;5017808;28;20030;-56
2022/07/24 08:54:02;;;;;;;9.52;6.43;;;22.30;99.90;;;;;;5018008;28;20033;-56
2022/07/24 08:56:28;;;;;;;7.20;5.38;;;22.20;99.90;;;;;;5019333;28;20029;-56
2022/07/24 08:58:54;;;;;;;7.90;5.40;;;22.20;99.90;;;;;;5018987;28;20465;-56
2022/07/24 09:01:19;;;;;;;10.77;6.25;;;22.20;99.90;;;;;;5017978;28;20030;-56
2022/07/24 09:03:47;;;;;;;12.40;7.30;;;22.30;99.90;;;;;;5019596;28;20421;-57
2022/07/24 09:06:15;;;;;;;14.13;7.55;;;22.50;99.90;;;;;;5019187;28;20030;-56
2022/07/24 09:08:42;;;;;;;11.63;6.97;;;22.60;99.90;;;;;;5017680;28;20025;-56
2022/07/24 09:11:09;;;;;;;12.40;7.47;;;22.70;99.90;;;;;;5019165;28;20056;-56
2022/07/24 09:16:25;;;;;;;11.75;6.85;;;22.80;99.90;;;;;;5017078;28;20212;-56
2022/07/24 09:19:07;;;;;;;11.02;6.82;;;22.80;99.90;;;;;;5018867;28;20026;-56
2022/07/24 09:21:38;;;;;;;8.82;6.43;;;22.90;99.90;;;;;;5018950;28;20097;-56
2022/07/24 09:24:15;;;;;;;8.07;6.18;;;22.70;99.90;;;;;;5017553;28;20095;-61
2022/07/24 09:26:53;;;;;;;11.57;6.60;;;22.80;99.90;;;;;;5017545;28;20026;-56
2022/07/24 09:29:19;;;;;;;;;;;23.00;99.90;;;;;;5017871;28;20030;-56
2022/07/24 09:32:00;;;;;;;8.20;5.95;;;23.10;99.90;;;;;;5023475;28;19956;-56
2022/07/24 09:34:28;;;;;;;7.50;5.43;;;23.10;99.90;;;;;;5029394;28;20032;-56
2022/07/24 09:37:04;;;;;;;11.35;6.22;;;23.00;99.90;;;;;;5029416;28;20052;-56
2022/07/24 09:39:32;;;;;;;11.82;6.63;;;22.90;99.90;;;;;;5028200;28;20052;-56
2022/07/24 09:41:59;;;;;;;9.77;5.97;;;23.10;99.90;;;;;;5033379;28;20025;-56
2022/07/24 09:44:25;;;;;;;9.95;5.90;;;23.40;99.90;;;;;;5033414;28;20044;-57
2022/07/24 09:47:02;;;;;;;7.70;4.73;;;23.50;99.90;;;;;;5033540;28;20033;-57
2022/07/24 09:49:29;;;;;;;10.23;5.10;;;23.80;96.40;;;;;;5033250;28;20029;-56
2022/07/24 09:52:13;;;;;;;10.02;4.97;;;24.00;99.90;;;;;;5031885;28;20053;-57
2022/07/24 09:54:44;;;;;;;6.55;4.93;;;24.20;99.90;;;;;;5033442;28;20049;-56
2022/07/24 09:57:18;;;;;;;6.57;4.57;;;24.50;98.70;;;;;;5033218;28;20048;-56
2022/07/24 09:59:55;;;;;;;6.70;4.22;;;24.60;98.00;;;;;;5032799;28;20046;-56
2022/07/24 10:02:24;;;;;;;8.27;5.00;;;24.70;92.50;;;;;;5033018;28;20389;-56
2022/07/24 10:04:51;;;;;;;8.45;5.95;;;24.70;93.90;;;;;;5033059;28;20493;-56
2022/07/24 10:07:20;;;;;;;7.10;5.25;;;24.50;95.90;;;;;;5032967;28;20068;-56
2022/07/24 10:09:48;;;;;;;7.43;5.25;;;24.40;96.80;;;;;;5032781;28;20051;-55
2022/07/24 10:12:19;;;;;;;6.40;5.18;;;24.40;97.00;;;;;;5032990;28;20033;-56
2022/07/24 10:14:46;;;;;;;10.63;5.07;;;24.70;98.80;;;;;;5032542;28;20029;-56
2022/07/24 10:17:12;;;;;;;;;;;24.90;98.60;;;;;;5033196;28;20040;-56
2022/07/24 10:19:42;;;;;;;7.35;4.40;;;25.20;91.30;;;;;;5032936;28;19951;-56
2022/07/24 10:22:22;;;;;;;6.70;4.03;;;25.30;88.20;;;;;;5032771;28;20108;-56
2022/07/24 10:24:56;;;;;;;5.53;3.75;;;25.40;84.10;;;;;;5032494;28;20439;-57
2022/07/24 10:27:30;;;;;;;7.78;4.25;;;25.50;84.80;;;;;;5032445;28;20582;-57
2022/07/24 10:29:59;;;;;;;8.13;4.03;;;25.70;90.10;;;;;;5032571;28;20060;-55
2022/07/24 10:32:27;;;;;;;7.95;4.13;;;25.90;89.30;;;;;;5032544;28;20099;-56
2022/07/24 10:35:22;;;;;;;5.18;4.22;;;26.00;86.30;;;;;;5021004;28;20065;-56
2022/07/24 10:38:10;;;;;;;7.28;4.05;;;25.90;83.10;;;;;;5021693;28;20048;-56
2022/07/24 10:41:14;;;;;;;9.88;4.60;;;25.90;86.70;;;;;;5020215;28;20053;-55
2022/07/24 10:43:40;;;;;;;8.45;3.70;;;26.30;86.90;;;;;;5006017;28;20033;-56
2022/07/24 10:46:05;;;;;;;11.18;4.55;;;26.70;86.80;;;;;;5019681;28;20540;-56
2022/07/24 10:48:41;;;;;;;5.82;3.53;;;26.80;84.40;;;;;;5021269;28;20044;-56
2022/07/24 10:51:13;;;;;;;5.72;3.45;;;26.50;75.80;;;;;;5019600;28;20125;-56
2022/07/24 10:53:52;;;;;;;7.68;3.67;;;26.50;80.10;;;;;;5019963;28;20029;-56
2022/07/24 10:56:30;;;;;;;9.30;3.95;;;26.80;82.40;;;;;;5021535;28;20026;-57
2022/07/24 10:59:04;;;;;;;6.13;3.78;;;27.40;79.70;;;;;;5021270;28;20057;-57
2022/07/24 11:01:50;;;;;;;6.78;3.47;;;26.80;71.20;;;;;;5025031;28;20400;-56
2022/07/24 11:04:19;;;;;;;4.68;3.17;;;26.10;72.50;;;;;;5031687;28;20032;-57
2022/07/24 11:06:44;;;;;;;6.32;3.60;;;26.50;73.10;;;;;;5031686;28;20017;-57
2022/07/24 11:09:11;;;;;;;6.50;3.88;;;26.50;66.40;;;;;;5031939;28;20422;-57
2022/07/24 11:11:42;;;;;;;3.88;2.85;;;26.70;69.60;;;;;;5031877;28;20029;-57
2022/07/24 11:14:10;;;;;;;6.65;3.38;;;26.80;71.40;;;;;;5031727;28;20037;-57
2022/07/24 11:16:36;;;;;;;7.25;3.33;;;26.90;73.20;;;;;;5031708;28;20091;-57
2022/07/24 11:19:01;;;;;;;6.28;3.72;;;26.80;69.00;;;;;;5030284;28;20021;-57
2022/07/24 11:21:40;;;;;;;6.10;3.53;;;26.50;66.70;;;;;;5029858;28;20029;-57
2022/07/24 11:24:21;;;;;;;4.38;2.88;;;26.70;68.50;;;;;;5026242;28;20057;-57
2022/07/24 11:26:51;;;;;;;10.95;2.90;;;27.10;68.70;;;;;;5017965;28;20026;-57
2022/07/24 11:29:23;;;;;;;5.53;2.88;;;27.30;72.70;;;;;;5019306;28;20478;-56
2022/07/24 11:31:55;;;;;;;4.75;2.25;;;27.60;68.70;;;;;;5015431;28;20055;-57
2022/07/24 11:34:21;;;;;;;3.92;2.38;;;27.50;65.00;;;;;;5018447;28;20036;-56
2022/07/24 11:36:49;;;;;;;3.97;2.23;;;27.30;61.20;;;;;;5022159;28;20049;-57
2022/07/24 11:39:16;;;;;;;6.28;2.55;;;27.50;60.60;;;;;;5031193;28;20060;-57
2022/07/24 11:41:49;;;;;;;5.70;2.20;;;27.10;60.30;;;;;;5021116;28;20476;-57
2022/07/24 11:44:23;;;;;;;4.28;2.58;;;27.30;59.40;;;;;;5015068;28;20034;-57
2022/07/24 11:46:49;;;;;;;10.90;2.50;;;27.50;61.50;;;;;;5019823;28;20026;-57
2022/07/24 11:49:15;;;;;;;7.30;3.00;;;27.80;66.90;;;;;;5021200;28;20029;-56
2022/07/24 11:51:45;;;;;;;6.93;2.53;;;27.60;61.30;;;;;;5020986;28;20026;-57
2022/07/24 11:54:13;;;;;;;3.47;2.50;;;27.90;64.70;;;;;;5019549;28;20021;-57
2022/07/24 11:56:40;;;;;;;8.35;3.10;;;28.10;66.40;;;;;;5056929;28;20091;-57
2022/07/24 11:59:20;;;;;;;5.47;2.17;;;28.20;69.50;;;;;;5030895;28;20049;-57
2022/07/24 12:01:46;;;;;;;7.15;2.60;;;28.20;66.60;;;;;;5030954;28;20026;-56
2022/07/24 12:04:12;;;;;;;3.38;2.08;;;28.30;62.00;;;;;;5030358;28;20072;-57
2022/07/24 12:06:37;;;;;;;3.05;1.85;;;28.30;59.70;;;;;;5018088;28;20035;-57
2022/07/24 12:09:09;;;;;;;4.82;1.92;;;28.40;59.80;;;;;;5020303;28;20440;-56
2022/07/24 12:11:37;;;;;;;5.03;1.80;;;28.50;61.30;;;;;;5019116;28;20076;-57
2022/07/24 12:14:16;;;;;;;4.13;2.42;;;28.40;58.20;;;;;;5019038;28;20116;-56
2022/07/24 12:16:43;;;;;;;2.90;1.98;;;28.40;60.10;;;;;;5019426;28;20033;-56
2022/07/24 12:19:20;;;;;;;5.03;1.60;;;28.50;59.70;;;;;;5025384;28;20037;-57
2022/07/24 12:21:47;;;;;;;2.83;2.10;;;28.40;59.80;;;;;;5018455;28;20376;-57
2022/07/24 12:24:13;;;;;;;3.22;1.55;;;28.40;60.60;;;;;;5019167;28;20024;-57
2022/07/24 12:26:49;;;;;;;3.33;1.77;;;28.60;61.80;;;;;;5017219;28;20121;-57
2022/07/24 12:29:15;;;;;;;4.30;1.75;;;28.70;59.80;;;;;;5017193;28;20033;-58
2022/07/24 12:31:41;;;;;;;3.95;2.20;;;28.70;59.60;;;;;;5018778;28;20036;-56
2022/07/24 12:34:07;;;;;;;4.47;1.58;;;28.70;63.30;;;;;;5018802;28;20018;-55
2022/07/24 12:36:33;;;;;;;5.80;1.63;;;28.70;60.60;;;;;;5024469;28;20073;-56
2022/07/24 12:38:59;;;;;;;58.60;45.15;;;28.70;58.10;;;;;;5021922;28;20021;-55
2022/07/24 12:41:26;;;;;;;5.50;2.95;;;28.70;59.00;;;;;;5022898;28;21333;-54